Time;durP1;ratioP1;P1;durP2;ratioP2;P2;SDS_P1;SDS_P2;PMS_P1;PMS_P2;Temp;Humidity;BMP_temperature;BMP_pressure;BME280_temperature;BME280_humidity;BME280_pressure;Samples;Min_cycle;Max_cycle;Signal;HPM_P1;HPM_P2
2023/09/14 00:00:27;;;;;;;4.90;2.40;;;;;;;;;;4953784;28;21194;-53
2023/09/14 00:02:53;;;;;;;4.03;2.03;;;;;;;;;;4954552;28;20433;-53
2023/09/14 00:05:19;;;;;;;4.57;1.90;;;;;;;;;;4954394;28;20872;-53
2023/09/14 00:07:45;;;;;;;2.78;1.70;;;;;;;;;;4954213;28;20409;-53
2023/09/14 00:10:14;;;;;;;4.47;2.17;;;;;;;;;;4954228;28;20400;-53
2023/09/14 00:12:40;;;;;;;5.22;2.10;;;;;;;;;;4953499;28;20857;-53
2023/09/14 00:15:06;;;;;;;3.20;2.03;;;;;;;;;;4954090;28;20487;-53
2023/09/14 00:17:32;;;;;;;5.45;2.00;;;;;;;;;;4954165;28;20405;-53
2023/09/14 00:19:58;;;;;;;3.45;2.08;;;;;;;;;;4953837;28;20428;-53
2023/09/14 00:22:24;;;;;;;3.35;1.80;;;;;;;;;;4954038;28;20402;-53
2023/09/14 00:24:50;;;;;;;4.22;1.98;;;;;;;;;;4951789;28;20418;-54
2023/09/14 00:27:17;;;;;;;3.00;1.70;;;;;;;;;;4952007;28;20426;-54
2023/09/14 00:29:46;;;;;;;3.55;1.90;;;;;;;;;;4953603;28;20409;-54
2023/09/14 00:32:12;;;;;;;2.83;2.10;;;;;;;;;;4954955;28;20210;-55
2023/09/14 00:34:38;;;;;;;3.83;1.83;;;;;;;;;;4954925;28;20267;-54
2023/09/14 00:37:04;;;;;;;4.50;2.25;;;;;;;;;;4953465;28;20881;-54
2023/09/14 00:39:30;;;;;;;5.55;2.28;;;;;;;;;;4953619;28;20881;-54
2023/09/14 00:41:56;;;;;;;3.47;2.03;;;;;;;;;;4953471;28;20433;-54
2023/09/14 00:44:23;;;;;;;3.58;2.30;;;;;;;;;;4953552;28;20405;-54
2023/09/14 00:46:50;;;;;;;4.55;2.35;;;;;;;;;;4953511;28;20903;-54
2023/09/14 00:49:16;;;;;;;4.43;2.10;;;;;;;;;;4953341;28;20401;-54
2023/09/14 00:51:42;;;;;;;4.80;2.17;;;;;;;;;;4953449;28;20402;-54
2023/09/14 00:54:08;;;;;;;2.85;1.95;;;;;;;;;;4953419;28;20501;-54
2023/09/14 00:56:34;;;;;;;3.72;2.00;;;;;;;;;;4953484;28;20919;-54
2023/09/14 00:59:00;;;;;;;4.80;2.15;;;;;;;;;;4952898;28;20489;-54
2023/09/14 01:01:27;;;;;;;2.30;1.77;;;;;;;;;;4954497;28;20314;-54
2023/09/14 01:03:53;;;;;;;4.13;1.80;;;;;;;;;;4954490;28;20305;-54
2023/09/14 01:06:20;;;;;;;2.63;1.67;;;;;;;;;;4954410;28;20892;-54
2023/09/14 01:08:46;;;;;;;3.17;1.57;;;;;;;;;;4954415;28;20200;-54
2023/09/14 01:11:12;;;;;;;4.67;2.07;;;;;;;;;;4953937;28;20200;-54
2023/09/14 01:13:44;;;;;;;5.60;2.47;;;;;;;;;;4953007;28;21000;-54
2023/09/14 01:16:15;;;;;;;3.95;2.33;;;;;;;;;;4952970;28;20577;-54
2023/09/14 01:18:45;;;;;;;4.55;2.15;;;;;;;;;;4953015;28;20410;-54
2023/09/14 01:21:27;;;;;;;3.95;2.05;;;;;;;;;;4952566;28;20430;-54
2023/09/14 01:23:56;;;;;;;3.90;1.83;;;;;;;;;;4952872;28;20414;-54
2023/09/14 01:26:24;;;;;;;2.83;1.88;;;;;;;;;;4952716;28;20469;-54
2023/09/14 01:28:50;;;;;;;4.40;2.10;;;;;;;;;;4952576;28;20417;-54
2023/09/14 01:31:16;;;;;;;2.93;1.70;;;;;;;;;;4953733;28;20235;-54
2023/09/14 01:33:42;;;;;;;6.00;2.33;;;;;;;;;;4951945;28;20833;-54
2023/09/14 01:36:11;;;;;;;3.38;2.00;;;;;;;;;;4952624;28;20753;-54
2023/09/14 01:38:38;;;;;;;2.90;1.90;;;;;;;;;;4952827;28;20405;-54
2023/09/14 01:41:04;;;;;;;5.43;2.28;;;;;;;;;;4952651;28;20402;-54
2023/09/14 01:43:32;;;;;;;4.55;2.17;;;;;;;;;;4952514;28;20409;-54
2023/09/14 01:45:58;;;;;;;5.00;2.38;;;;;;;;;;4952164;28;20410;-54
2023/09/14 01:48:24;;;;;;;3.50;2.15;;;;;;;;;;4952523;28;20486;-54
2023/09/14 01:50:50;;;;;;;4.75;2.30;;;;;;;;;;4952537;28;20525;-54
2023/09/14 01:53:17;;;;;;;5.10;2.40;;;;;;;;;;4952423;28;20433;-54
2023/09/14 01:55:43;;;;;;;4.78;2.38;;;;;;;;;;4952269;28;20444;-54
2023/09/14 01:58:10;;;;;;;4.30;2.15;;;;;;;;;;4952113;28;20488;-54
2023/09/14 02:00:37;;;;;;;4.80;2.03;;;;;;;;;;4952385;28;20413;-54
2023/09/14 02:03:03;;;;;;;4.78;2.30;;;;;;;;;;4952299;28;20410;-54
2023/09/14 02:05:30;;;;;;;5.03;2.58;;;;;;;;;;4952283;28;20836;-54
2023/09/14 02:07:56;;;;;;;5.07;2.45;;;;;;;;;;4951921;28;20398;-54
2023/09/14 02:10:22;;;;;;;5.07;2.22;;;;;;;;;;4952045;28;20517;-54
2023/09/14 02:12:48;;;;;;;4.13;2.20;;;;;;;;;;4953254;28;20199;-52
2023/09/14 02:15:15;;;;;;;4.77;1.93;;;;;;;;;;4953185;28;20199;-52
2023/09/14 02:17:42;;;;;;;3.83;2.22;;;;;;;;;;4952045;28;20526;-52
2023/09/14 02:20:09;;;;;;;4.00;2.25;;;;;;;;;;4951704;28;20414;-54
2023/09/14 02:22:35;;;;;;;2.80;2.00;;;;;;;;;;4952162;28;20405;-54
2023/09/14 02:25:01;;;;;;;5.68;2.58;;;;;;;;;;4951813;28;20406;-54
2023/09/14 02:27:27;;;;;;;5.53;2.30;;;;;;;;;;4952973;28;20203;-52
2023/09/14 02:29:53;;;;;;;3.33;2.40;;;;;;;;;;4952866;28;20262;-52
2023/09/14 02:32:20;;;;;;;3.28;2.10;;;;;;;;;;4951789;28;20422;-52
2023/09/14 02:34:50;;;;;;;5.50;2.60;;;;;;;;;;4953257;28;20284;-52
2023/09/14 02:37:16;;;;;;;3.40;2.10;;;;;;;;;;4951732;28;20441;-53
2023/09/14 02:39:42;;;;;;;4.97;2.60;;;;;;;;;;4951867;28;20421;-53
2023/09/14 02:42:08;;;;;;;6.32;2.55;;;;;;;;;;4951472;28;20441;-53
2023/09/14 02:44:36;;;;;;;3.63;2.27;;;;;;;;;;4951986;28;20418;-53
2023/09/14 02:47:02;;;;;;;5.18;2.47;;;;;;;;;;4954710;28;20413;-53
2023/09/14 02:49:28;;;;;;;7.03;2.65;;;;;;;;;;4955708;28;20405;-53
2023/09/14 02:51:56;;;;;;;3.08;2.00;;;;;;;;;;4955473;28;20513;-53
2023/09/14 02:54:22;;;;;;;5.20;2.70;;;;;;;;;;4955381;28;20413;-53
2023/09/14 02:56:48;;;;;;;3.80;2.00;;;;;;;;;;4955612;28;20480;-54
2023/09/14 02:59:16;;;;;;;5.05;2.38;;;;;;;;;;4955361;28;20492;-53
2023/09/14 03:01:43;;;;;;;3.75;2.10;;;;;;;;;;4955465;28;20777;-54
2023/09/14 03:04:09;;;;;;;5.78;2.35;;;;;;;;;;4955215;28;20923;-54
2023/09/14 03:06:35;;;;;;;5.17;2.53;;;;;;;;;;4955318;28;20421;-53
2023/09/14 03:09:03;;;;;;;3.53;2.10;;;;;;;;;;4955171;28;20769;-53
2023/09/14 03:11:29;;;;;;;3.40;1.73;;;;;;;;;;4956354;28;20235;-53
2023/09/14 03:13:55;;;;;;;3.22;2.10;;;;;;;;;;4955193;28;20405;-53
2023/09/14 03:16:21;;;;;;;3.97;2.10;;;;;;;;;;4955101;28;20881;-53
2023/09/14 03:18:47;;;;;;;3.50;1.80;;;;;;;;;;4955185;28;20445;-53
2023/09/14 03:21:21;;;;;;;4.00;2.17;;;;;;;;;;4954960;28;20414;-53
2023/09/14 03:23:47;;;;;;;3.33;2.20;;;;;;;;;;4955065;28;20900;-57
2023/09/14 03:26:15;;;;;;;4.88;2.40;;;;;;;;;;4954836;28;20939;-53
2023/09/14 03:28:41;;;;;;;6.05;2.40;;;;;;;;;;4954449;28;20422;-53
2023/09/14 03:31:07;;;;;;;4.50;2.45;;;;;;;;;;4953702;28;20456;-53
2023/09/14 03:33:33;;;;;;;3.63;2.03;;;;;;;;;;4953589;28;20502;-53
2023/09/14 03:35:59;;;;;;;4.93;2.40;;;;;;;;;;4953609;28;20653;-54
2023/09/14 03:38:25;;;;;;;6.13;2.47;;;;;;;;;;4953550;28;20414;-53
2023/09/14 03:40:51;;;;;;;3.03;2.10;;;;;;;;;;4953624;28;20943;-53
2023/09/14 03:43:18;;;;;;;3.20;1.95;;;;;;;;;;4953471;28;20418;-53
2023/09/14 03:45:44;;;;;;;3.88;2.20;;;;;;;;;;4953357;28;20445;-53
2023/09/14 03:48:10;;;;;;;2.80;2.10;;;;;;;;;;4953447;28;20430;-53
2023/09/14 03:50:36;;;;;;;3.50;2.20;;;;;;;;;;4953646;28;20930;-53
2023/09/14 03:53:02;;;;;;;4.43;2.20;;;;;;;;;;4953634;28;20469;-53
2023/09/14 03:55:29;;;;;;;4.40;2.60;;;;;;;;;;4953365;28;20446;-53
2023/09/14 03:57:55;;;;;;;4.05;2.17;;;;;;;;;;4952680;28;20923;-53
2023/09/14 04:00:22;;;;;;;2.80;1.93;;;;;;;;;;4954562;28;20196;-53
2023/09/14 04:02:48;;;;;;;3.55;2.05;;;;;;;;;;4953135;28;20430;-54
2023/09/14 04:05:15;;;;;;;3.97;2.20;;;;;;;;;;4953161;28;20413;-54
2023/09/14 04:07:41;;;;;;;3.53;2.30;;;;;;;;;;4953203;28;20449;-54
2023/09/14 04:10:10;;;;;;;3.60;2.17;;;;;;;;;;4953135;28;20845;-54
2023/09/14 04:12:36;;;;;;;4.10;2.13;;;;;;;;;;4954403;28;20790;-53
2023/09/14 04:15:03;;;;;;;2.80;2.07;;;;;;;;;;4954019;28;20214;-53
2023/09/14 04:17:30;;;;;;;2.80;1.97;;;;;;;;;;4954223;28;20211;-54
2023/09/14 04:19:56;;;;;;;3.77;2.07;;;;;;;;;;4954131;28;20639;-53
2023/09/14 04:22:22;;;;;;;2.88;1.90;;;;;;;;;;4953003;28;20508;-54
2023/09/14 04:24:49;;;;;;;2.70;2.10;;;;;;;;;;4953076;28;20517;-53
2023/09/14 04:27:15;;;;;;;4.15;2.30;;;;;;;;;;4952602;28;20409;-53
2023/09/14 04:29:41;;;;;;;6.17;2.80;;;;;;;;;;4918033;28;1034762;-53
2023/09/14 04:32:08;;;;;;;4.63;3.17;;;;;;;;;;4953745;28;20434;-53
2023/09/14 04:34:35;;;;;;;8.83;4.80;;;;;;;;;;4954915;28;20942;-53
2023/09/14 04:37:01;;;;;;;4.13;2.67;;;;;;;;;;4954715;28;20238;-53
2023/09/14 04:39:27;;;;;;;4.85;2.78;;;;;;;;;;4953760;28;20410;-53
2023/09/14 04:41:53;;;;;;;4.40;2.50;;;;;;;;;;4953591;28;20796;-53
2023/09/14 04:44:19;;;;;;;3.33;2.07;;;;;;;;;;4954775;28;20200;-54
2023/09/14 04:46:45;;;;;;;2.33;2.07;;;;;;;;;;4954664;28;20204;-53
2023/09/14 04:49:12;;;;;;;4.85;2.67;;;;;;;;;;4953288;28;20488;-53
2023/09/14 04:51:40;;;;;;;5.30;3.10;;;;;;;;;;4953521;28;20508;-53
2023/09/14 04:54:06;;;;;;;5.38;2.97;;;;;;;;;;4953365;28;20468;-53
2023/09/14 04:56:32;;;;;;;3.67;2.70;;;;;;;;;;4952855;28;20405;-53
2023/09/14 04:58:58;;;;;;;3.80;2.22;;;;;;;;;;4952516;28;20830;-53
2023/09/14 05:01:24;;;;;;;5.30;2.77;;;;;;;;;;4952997;28;20466;-53
2023/09/14 05:03:50;;;;;;;4.97;2.80;;;;;;;;;;4952948;28;20935;-53
2023/09/14 05:06:16;;;;;;;5.78;2.97;;;;;;;;;;4952741;28;20449;-53
2023/09/14 05:08:43;;;;;;;5.15;2.88;;;;;;;;;;4951929;28;20426;-54
2023/09/14 05:11:09;;;;;;;5.32;3.20;;;;;;;;;;4952358;28;20788;-53
2023/09/14 05:13:35;;;;;;;5.90;3.05;;;;;;;;;;4952718;28;20406;-54
2023/09/14 05:16:02;;;;;;;3.47;2.85;;;;;;;;;;4952249;28;20755;-53
2023/09/14 05:18:28;;;;;;;5.05;2.50;;;;;;;;;;4952365;28;20746;-53
2023/09/14 05:20:54;;;;;;;5.90;3.20;;;;;;;;;;4952259;28;20493;-53
2023/09/14 05:23:20;;;;;;;6.78;3.15;;;;;;;;;;4952332;28;20457;-53
2023/09/14 05:25:48;;;;;;;5.30;2.90;;;;;;;;;;4952369;28;20402;-53
2023/09/14 05:28:14;;;;;;;4.90;2.92;;;;;;;;;;4952135;28;20409;-52
2023/09/14 05:30:43;;;;;;;5.70;3.05;;;;;;;;;;4952177;28;20421;-53
2023/09/14 05:33:09;;;;;;;6.63;3.40;;;;;;;;;;4952202;28;20888;-53
2023/09/14 05:35:35;;;;;;;4.13;2.67;;;;;;;;;;4952031;28;20480;-53
2023/09/14 05:38:01;;;;;;;7.07;3.38;;;;;;;;;;4952145;28;20462;-53
2023/09/14 05:40:27;;;;;;;5.07;2.83;;;;;;;;;;4952130;28;20406;-53
2023/09/14 05:42:55;;;;;;;5.05;2.80;;;;;;;;;;4952061;28;20473;-53
2023/09/14 05:45:21;;;;;;;4.47;3.00;;;;;;;;;;4952176;28;20446;-53
2023/09/14 05:47:47;;;;;;;5.80;3.30;;;;;;;;;;4952163;28;20418;-53
2023/09/14 05:50:13;;;;;;;6.75;3.80;;;;;;;;;;4969848;28;20408;-53
2023/09/14 05:52:39;;;;;;;4.97;3.30;;;;;;;;;;4971412;28;20409;-53
2023/09/14 05:55:05;;;;;;;7.68;3.75;;;;;;;;;;4971348;28;20898;-53
2023/09/14 05:57:32;;;;;;;7.13;4.10;;;;;;;;;;4970977;28;20471;-53
2023/09/14 05:59:59;;;;;;;6.90;3.90;;;;;;;;;;4971087;28;20459;-53
2023/09/14 06:02:26;;;;;;;6.20;3.78;;;;;;;;;;4970970;28;20408;-53
2023/09/14 06:04:53;;;;;;;6.97;3.53;;;;;;;;;;4971133;28;20818;-54
2023/09/14 06:07:19;;;;;;;4.17;3.50;;;;;;;;;;4971184;28;20850;-53
2023/09/14 06:09:45;;;;;;;6.32;3.67;;;;;;;;;;4970714;28;20417;-53
2023/09/14 06:12:11;;;;;;;6.60;3.85;;;;;;;;;;4970906;28;20424;-53
2023/09/14 06:14:37;;;;;;;8.25;4.35;;;;;;;;;;4970974;28;20755;-53
2023/09/14 06:17:04;;;;;;;7.03;4.10;;;;;;;;;;4971270;28;20926;-52
2023/09/14 06:19:30;;;;;;;6.65;4.35;;;;;;;;;;4970761;28;20428;-53
2023/09/14 06:21:58;;;;;;;5.93;3.78;;;;;;;;;;4970677;28;20471;-53
2023/09/14 06:24:24;;;;;;;6.10;4.13;;;;;;;;;;4970841;28;20400;-53
2023/09/14 06:26:50;;;;;;;4.95;3.60;;;;;;;;;;4970755;28;21014;-52
2023/09/14 06:29:16;;;;;;;8.02;4.68;;;;;;;;;;4970518;28;20424;-53
2023/09/14 06:31:42;;;;;;;7.38;4.50;;;;;;;;;;4970566;28;20779;-53
2023/09/14 06:34:10;;;;;;;7.95;4.50;;;;;;;;;;4970759;28;20486;-54
2023/09/14 06:36:36;;;;;;;7.93;4.78;;;;;;;;;;4970891;28;20766;-53
2023/09/14 06:39:03;;;;;;;7.38;4.88;;;;;;;;;;4970720;28;20412;-53
2023/09/14 06:41:28;;;;;;;6.63;4.10;;;;;;;;;;4970850;28;20437;-53
2023/09/14 06:43:55;;;;;;;9.05;4.57;;;;;;;;;;4970430;28;20401;-53
2023/09/14 06:46:21;;;;;;;6.65;4.50;;;;;;;;;;4970633;28;20411;-53
2023/09/14 06:48:47;;;;;;;5.60;3.75;;;;;;;;;;4970301;28;20415;-53
2023/09/14 06:51:14;;;;;;;5.57;3.80;;;;;;;;;;4970321;28;20480;-53
2023/09/14 06:53:40;;;;;;;6.77;3.97;;;;;;;;;;4970659;28;20423;-54
2023/09/14 06:56:06;;;;;;;6.50;4.53;;;;;;;;;;4970663;28;20499;-53
2023/09/14 06:58:32;;;;;;;7.05;4.15;;;;;;;;;;4970517;28;20396;-53
2023/09/14 07:01:03;;;;;;;7.03;4.05;;;;;;;;;;4970492;28;20542;-53
2023/09/14 07:03:29;;;;;;;7.68;4.25;;;;;;;;;;4970476;28;20898;-53
2023/09/14 07:05:55;;;;;;;7.95;4.45;;;;;;;;;;4970464;28;20447;-53
2023/09/14 07:08:23;;;;;;;5.93;4.40;;;;;;;;;;4970600;28;20443;-54
2023/09/14 07:10:49;;;;;;;7.97;4.50;;;;;;;;;;4970652;28;20443;-53
2023/09/14 07:13:15;;;;;;;8.68;4.43;;;;;;;;;;4970386;28;20462;-53
2023/09/14 07:15:41;;;;;;;8.50;4.53;;;;;;;;;;4970346;28;20407;-53
2023/09/14 07:18:07;;;;;;;7.20;4.15;;;;;;;;;;4970423;28;20410;-53
2023/09/14 07:20:33;;;;;;;6.38;3.92;;;;;;;;;;4970330;28;20420;-53
2023/09/14 07:22:59;;;;;;;7.65;3.70;;;;;;;;;;4970327;28;20665;-54
2023/09/14 07:25:28;;;;;;;6.03;3.92;;;;;;;;;;4970251;28;20437;-52
2023/09/14 07:27:54;;;;;;;7.47;4.00;;;;;;;;;;4971452;28;20209;-52
2023/09/14 07:30:20;;;;;;;4.57;3.53;;;;;;;;;;4971336;28;20608;-52
2023/09/14 07:32:46;;;;;;;5.80;3.83;;;;;;;;;;4972082;28;20958;-52
2023/09/14 07:35:12;;;;;;;7.93;4.10;;;;;;;;;;4973819;28;21137;-52
2023/09/14 07:37:38;;;;;;;6.68;4.10;;;;;;;;;;4973788;28;20441;-52
2023/09/14 07:40:06;;;;;;;8.98;4.50;;;;;;;;;;4973851;28;20407;-52
2023/09/14 07:42:33;;;;;;;5.97;3.60;;;;;;;;;;4973514;28;20495;-57
2023/09/14 07:44:59;;;;;;;7.82;4.47;;;;;;;;;;4973460;28;20615;-52
2023/09/14 07:47:29;;;;;;;8.07;4.30;;;;;;;;;;4973409;28;20420;-54
2023/09/14 07:49:55;;;;;;;9.35;4.22;;;;;;;;;;4973434;28;20481;-53
2023/09/14 07:52:23;;;;;;;7.17;3.63;;;;;;;;;;4974738;28;20647;-54
2023/09/14 07:54:49;;;;;;;9.90;4.17;;;;;;;;;;4973646;28;20470;-51
2023/09/14 07:57:15;;;;;;;4.93;3.40;;;;;;;;;;4965427;28;20669;-52
2023/09/14 07:59:42;;;;;;;6.90;3.92;;;;;;;;;;4973044;28;20404;-53
2023/09/14 08:02:08;;;;;;;9.90;3.78;;;;;;;;;;4973389;28;20462;-53
2023/09/14 08:04:34;;;;;;;5.20;2.83;;;;;;;;;;4974565;28;20199;-53
2023/09/14 08:07:00;;;;;;;9.10;3.60;;;;;;;;;;4973282;28;20408;-53
2023/09/14 08:09:27;;;;;;;5.30;3.30;;;;;;;;;;4972912;28;20404;-53
2023/09/14 08:11:53;;;;;;;5.57;3.47;;;;;;;;;;4972997;28;20474;-53
2023/09/14 08:14:19;;;;;;;6.60;2.80;;;;;;;;;;4974388;28;20211;-53
2023/09/14 08:16:47;;;;;;;4.83;2.50;;;;;;;;;;4965345;28;20264;-53
2023/09/14 08:19:13;;;;;;;5.90;2.40;;;;;;;;;;4954661;28;20965;-53
2023/09/14 08:21:39;;;;;;;3.30;2.23;;;;;;;;;;4954856;28;20201;-53
2023/09/14 08:24:05;;;;;;;5.13;2.40;;;;;;;;;;4955197;28;20202;-53
2023/09/14 08:26:31;;;;;;;3.47;2.20;;;;;;;;;;4954496;28;20299;-52
2023/09/14 08:28:57;;;;;;;3.00;2.40;;;;;;;;;;4953934;28;20233;-53
2023/09/14 08:31:23;;;;;;;3.93;2.40;;;;;;;;;;4954646;28;20269;-53
2023/09/14 08:33:51;;;;;;;6.00;2.30;;;;;;;;;;4952899;28;20206;-53
2023/09/14 08:36:17;;;;;;;4.67;1.93;;;;;;;;;;4952654;28;20596;-53
2023/09/14 08:38:43;;;;;;;3.60;2.07;;;;;;;;;;4954659;28;20211;-53
2023/09/14 08:41:13;;;;;;;6.67;2.10;;;;;;;;;;4954668;28;20199;-52
2023/09/14 08:43:39;;;;;;;3.70;2.10;;;;;;;;;;4953467;28;20709;-52
2023/09/14 08:46:07;;;;;;;4.80;2.10;;;;;;;;;;4954636;28;20242;-53
2023/09/14 08:48:33;;;;;;;6.00;2.10;;;;;;;;;;4954107;28;20633;-53
2023/09/14 08:51:01;;;;;;;3.17;1.97;;;;;;;;;;4954325;28;20223;-54
2023/09/14 08:53:28;;;;;;;5.40;2.10;;;;;;;;;;4954325;28;20212;-53
2023/09/14 08:55:55;;;;;;;3.73;1.33;;;;;;;;;;4954633;28;20204;-54
2023/09/14 08:58:21;;;;;;;3.67;2.00;;;;;;;;;;4954691;28;20199;-54
2023/09/14 09:00:48;;;;;;;2.93;1.67;;;;;;;;;;4952328;28;20260;-54
2023/09/14 09:03:14;;;;;;;3.80;1.70;;;;;;;;;;4953664;28;20748;-54
2023/09/14 09:05:43;;;;;;;7.63;2.27;;;;;;;;;;4953913;28;20545;-52
2023/09/14 09:08:11;;;;;;;6.87;2.10;;;;;;;;;;4953599;28;20199;-53
2023/09/14 09:10:40;;;;;;;3.57;1.40;;;;;;;;;;4953357;28;20221;-53
2023/09/14 09:13:06;;;;;;;5.53;1.57;;;;;;;;;;4954090;28;20616;-53
2023/09/14 09:15:34;;;;;;;4.50;1.90;;;;;;;;;;4953383;28;20286;-53
2023/09/14 09:18:07;;;;;;;4.67;1.80;;;;;;;;;;4953576;28;20203;-53
2023/09/14 09:20:34;;;;;;;4.27;1.77;;;;;;;;;;4953370;28;20204;-53
2023/09/14 09:23:01;;;;;;;3.00;1.90;;;;;;;;;;4953268;28;20678;-53
2023/09/14 09:25:31;;;;;;;5.47;1.63;;;;;;;;;;4953362;28;20383;-53
2023/09/14 09:27:57;;;;;;;5.47;1.60;;;;;;;;;;4953453;28;20304;-53
2023/09/14 09:30:29;;;;;;;3.77;1.57;;;;;;;;;;4953275;28;20640;-53
2023/09/14 09:32:58;;;;;;;2.53;1.57;;;;;;;;;;4953029;28;20199;-54
2023/09/14 09:35:25;;;;;;;4.50;1.80;;;;;;;;;;4953160;28;20336;-53
2023/09/14 09:37:52;;;;;;;3.00;1.47;;;;;;;;;;4953385;28;20295;-53
2023/09/14 09:40:18;;;;;;;3.87;1.37;;;;;;;;;;4953108;28;20266;-54
2023/09/14 09:42:46;;;;;;;2.40;1.40;;;;;;;;;;4953135;28;20200;-54
2023/09/14 09:45:13;;;;;;;5.57;1.73;;;;;;;;;;4951515;28;20418;-54
2023/09/14 09:47:39;;;;;;;2.53;1.10;;;;;;;;;;4953210;28;20547;-54
2023/09/14 09:50:06;;;;;;;4.27;1.60;;;;;;;;;;4953411;28;20207;-53
2023/09/14 09:52:33;;;;;;;4.00;1.40;;;;;;;;;;4953351;28;20252;-53
2023/09/14 09:54:59;;;;;;;2.10;1.50;;;;;;;;;;4952104;28;20433;-54
2023/09/14 09:57:28;;;;;;;4.40;1.33;;;;;;;;;;4952939;28;20233;-54
2023/09/14 09:59:56;;;;;;;2.57;1.13;;;;;;;;;;4953396;28;20233;-54
2023/09/14 10:02:29;;;;;;;2.58;1.30;;;;;;;;;;4951753;28;20410;-54
2023/09/14 10:04:55;;;;;;;4.78;1.50;;;;;;;;;;4952263;28;20896;-54
2023/09/14 10:07:22;;;;;;;4.13;1.50;;;;;;;;;;4953441;28;20198;-54
2023/09/14 10:09:51;;;;;;;4.07;1.17;;;;;;;;;;4953447;28;20216;-54
2023/09/14 10:12:18;;;;;;;3.70;1.40;;;;;;;;;;4952766;28;20231;-54
2023/09/14 10:14:45;;;;;;;3.70;1.30;;;;;;;;;;4952957;28;20207;-55
2023/09/14 10:17:15;;;;;;;3.57;1.50;;;;;;;;;;4953267;28;20282;-54
2023/09/14 10:19:47;;;;;;;6.20;1.63;;;;;;;;;;4953375;28;20207;-54
2023/09/14 10:22:13;;;;;;;3.33;1.40;;;;;;;;;;4953235;28;20326;-54
2023/09/14 10:24:39;;;;;;;4.47;1.40;;;;;;;;;;4952686;28;20207;-54
2023/09/14 10:27:06;;;;;;;4.47;1.40;;;;;;;;;;4953242;28;20227;-54
2023/09/14 10:29:33;;;;;;;3.80;1.43;;;;;;;;;;4952890;28;20663;-53
2023/09/14 10:31:59;;;;;;;2.40;1.23;;;;;;;;;;4953077;28;20270;-54
2023/09/14 10:34:29;;;;;;;4.80;1.40;;;;;;;;;;4952884;28;20284;-54
2023/09/14 10:36:55;;;;;;;2.37;1.20;;;;;;;;;;4952543;28;20287;-54
2023/09/14 10:39:23;;;;;;;3.83;1.20;;;;;;;;;;4953157;28;20199;-54
2023/09/14 10:41:49;;;;;;;2.80;1.30;;;;;;;;;;4953022;28;20643;-54
2023/09/14 10:44:15;;;;;;;2.23;1.33;;;;;;;;;;4953043;28;20206;-55
2023/09/14 10:46:43;;;;;;;2.80;1.20;;;;;;;;;;4952839;28;20686;-54
2023/09/14 10:49:10;;;;;;;2.57;1.30;;;;;;;;;;4952837;28;20243;-55
2023/09/14 10:51:37;;;;;;;3.57;1.17;;;;;;;;;;4953092;28;20232;-54
2023/09/14 10:54:03;;;;;;;3.17;1.50;;;;;;;;;;4953104;28;20203;-54
2023/09/14 10:56:33;;;;;;;2.27;1.23;;;;;;;;;;4952529;28;20242;-55
2023/09/14 10:59:08;;;;;;;3.70;1.50;;;;;;;;;;4952872;28;20209;-56
2023/09/14 11:01:44;;;;;;;2.63;1.30;;;;;;;;;;4952689;28;20538;-55
2023/09/14 11:04:13;;;;;;;2.53;1.33;;;;;;;;;;4952851;28;20271;-55
2023/09/14 11:06:48;;;;;;;2.83;1.37;;;;;;;;;;4953621;28;20267;-55
2023/09/14 11:09:14;;;;;;;2.17;1.43;;;;;;;;;;4956286;28;20238;-55
2023/09/14 11:11:40;;;;;;;2.73;1.20;;;;;;;;;;4956575;28;20263;-55
2023/09/14 11:14:08;;;;;;;2.97;1.37;;;;;;;;;;4956757;28;20270;-55
2023/09/14 11:16:41;;;;;;;2.20;1.20;;;;;;;;;;4956224;28;20233;-55
2023/09/14 11:19:07;;;;;;;2.60;1.37;;;;;;;;;;4956699;28;20231;-55
2023/09/14 11:21:43;;;;;;;3.87;1.60;;;;;;;;;;4956577;28;20213;-55
2023/09/14 11:24:11;;;;;;;3.83;1.40;;;;;;;;;;4956493;28;20607;-56
2023/09/14 11:26:42;;;;;;;2.83;1.40;;;;;;;;;;4956355;28;20230;-55
2023/09/14 11:29:09;;;;;;;3.43;1.50;;;;;;;;;;4955859;28;20295;-55
2023/09/14 11:31:35;;;;;;;1.70;1.30;;;;;;;;;;4956067;28;20345;-55
2023/09/14 11:34:04;;;;;;;4.10;1.40;;;;;;;;;;4955752;28;20204;-55
2023/09/14 11:36:32;;;;;;;3.83;1.07;;;;;;;;;;4955744;28;20215;-55
2023/09/14 11:38:59;;;;;;;4.23;1.70;;;;;;;;;;4955274;28;20572;-55
2023/09/14 11:41:40;;;;;;;3.67;1.50;;;;;;;;;;4955492;28;20200;-55
2023/09/14 11:44:06;;;;;;;2.77;1.33;;;;;;;;;;4955755;28;20207;-55
2023/09/14 11:46:35;;;;;;;2.20;1.40;;;;;;;;;;4955540;28;20742;-55
2023/09/14 11:49:01;;;;;;;3.67;1.40;;;;;;;;;;4955722;28;20262;-54
2023/09/14 11:51:27;;;;;;;2.83;1.30;;;;;;;;;;4954970;28;20714;-55
2023/09/14 11:54:02;;;;;;;2.63;1.40;;;;;;;;;;4955515;28;20199;-55
2023/09/14 11:56:28;;;;;;;4.63;1.60;;;;;;;;;;4955288;28;20626;-55
2023/09/14 11:58:58;;;;;;;3.67;1.70;;;;;;;;;;4955627;28;20228;-56
2023/09/14 12:01:25;;;;;;;2.97;1.40;;;;;;;;;;4955053;28;20220;-56
2023/09/14 12:03:51;;;;;;;2.67;1.43;;;;;;;;;;4955351;28;20208;-56
2023/09/14 12:06:17;;;;;;;2.23;1.30;;;;;;;;;;4955305;28;20202;-55
2023/09/14 12:08:47;;;;;;;2.20;1.30;;;;;;;;;;4955106;28;20206;-55
2023/09/14 12:11:14;;;;;;;2.20;1.10;;;;;;;;;;4954737;28;20286;-56
2023/09/14 12:13:49;;;;;;;2.37;1.50;;;;;;;;;;4955298;28;20265;-56
2023/09/14 12:16:19;;;;;;;3.57;1.50;;;;;;;;;;4955005;28;20207;-56
2023/09/14 12:18:45;;;;;;;2.13;1.40;;;;;;;;;;4954265;28;20312;-56
2023/09/14 12:21:12;;;;;;;2.40;1.33;;;;;;;;;;4954887;28;20287;-56
2023/09/14 12:23:40;;;;;;;4.53;1.63;;;;;;;;;;4954951;28;20207;-56
2023/09/14 12:26:07;;;;;;;3.93;1.40;;;;;;;;;;4955021;28;20231;-56
2023/09/14 12:28:33;;;;;;;6.10;1.30;;;;;;;;;;4953800;28;20248;-56
2023/09/14 12:30:59;;;;;;;3.17;1.30;;;;;;;;;;4953471;28;20230;-58
2023/09/14 12:33:27;;;;;;;3.73;1.50;;;;;;;;;;4953381;28;20206;-56
2023/09/14 12:35:53;;;;;;;3.53;1.63;;;;;;;;;;4952931;28;20478;-55
2023/09/14 12:38:19;;;;;;;2.97;1.17;;;;;;;;;;4953623;28;20199;-57
2023/09/14 12:40:46;;;;;;;2.90;1.33;;;;;;;;;;4953776;28;20247;-57
2023/09/14 12:43:13;;;;;;;2.57;1.40;;;;;;;;;;4953740;28;20578;-56
2023/09/14 12:51:49;;;;;;;2.43;1.43;;;;;;;;;;4952579;29;20270;-56
2023/09/14 13:00:23;;;;;;;4.60;1.63;;;;;;;;;;4952545;29;20738;-56
2023/09/14 17:36:26;;;;;;;2.83;1.97;;;;;;;;;;5275003;23;20711;-56
2023/09/14 17:38:52;;;;;;;3.40;2.40;;;;;;;;;;5009722;28;20213;-56
2023/09/14 17:41:18;;;;;;;3.10;2.20;;;;;;;;;;5011216;28;20197;-57
2023/09/14 17:43:44;;;;;;;4.90;2.57;;;;;;;;;;5011455;28;20229;-57
2023/09/14 17:46:10;;;;;;;2.43;1.90;;;;;;;;;;5011026;28;20196;-57
2023/09/14 17:48:36;;;;;;;3.50;2.20;;;;;;;;;;5011599;28;20292;-57
2023/09/14 17:51:03;;;;;;;3.30;2.10;;;;;;;;;;5011201;28;20618;-57
2023/09/14 17:53:30;;;;;;;2.23;2.00;;;;;;;;;;5011234;28;20205;-56
2023/09/14 17:55:59;;;;;;;2.10;1.83;;;;;;;;;;5011324;28;20306;-56
2023/09/14 17:58:26;;;;;;;3.20;2.10;;;;;;;;;;5011247;28;20215;-57
2023/09/14 18:00:52;;;;;;;2.63;1.90;;;;;;;;;;5011231;28;20575;-56
2023/09/14 18:06:22;;;;;;;2.40;2.20;;;;;;;;;;5011281;28;20284;-56
2023/09/14 18:08:49;;;;;;;4.10;2.40;;;;;;;;;;5011269;28;20202;-57
2023/09/14 18:14:19;;;;;;;4.80;2.60;;;;;;;;;;5009951;28;20186;-57
2023/09/14 18:16:45;;;;;;;4.40;2.50;;;;;;;;;;4995804;28;20216;-57
2023/09/14 18:19:14;;;;;;;2.93;2.63;;;;;;;;;;4991501;28;20859;-57
2023/09/14 18:21:40;;;;;;;6.60;2.87;;;;;;;;;;4991933;28;20286;-57
2023/09/14 18:24:08;;;;;;;3.53;2.60;;;;;;;;;;4991409;28;20583;-56
2023/09/14 18:26:36;;;;;;;3.63;2.60;;;;;;;;;;4991714;28;20337;-56
2023/09/14 18:29:03;;;;;;;3.97;2.57;;;;;;;;;;4991720;28;20278;-56
2023/09/14 18:31:29;;;;;;;2.93;2.63;;;;;;;;;;4991683;28;20610;-57
2023/09/14 18:33:55;;;;;;;4.30;2.50;;;;;;;;;;4991558;28;20206;-57
2023/09/14 18:36:23;;;;;;;5.03;3.00;;;;;;;;;;4991151;28;20265;-56
2023/09/14 18:38:49;;;;;;;3.77;3.10;;;;;;;;;;4991433;28;20296;-57
2023/09/14 18:41:16;;;;;;;3.17;2.40;;;;;;;;;;4991276;28;20668;-57
2023/09/14 18:43:42;;;;;;;3.20;2.60;;;;;;;;;;4991665;28;20576;-57
2023/09/14 18:46:12;;;;;;;5.37;3.23;;;;;;;;;;4991327;28;20198;-57
2023/09/14 18:48:38;;;;;;;2.60;2.20;;;;;;;;;;4996736;28;20209;-57
2023/09/14 18:51:05;;;;;;;3.17;2.70;;;;;;;;;;5011043;28;20202;-56
2023/09/14 18:53:31;;;;;;;4.27;2.70;;;;;;;;;;5011124;28;20679;-56
2023/09/14 18:55:57;;;;;;;3.13;2.60;;;;;;;;;;5011074;28;20201;-56
2023/09/14 18:58:25;;;;;;;3.50;2.40;;;;;;;;;;5011070;28;20663;-56
2023/09/14 19:00:51;;;;;;;2.70;2.40;;;;;;;;;;5010858;28;20207;-56
2023/09/14 19:03:17;;;;;;;3.40;2.67;;;;;;;;;;5010903;28;20198;-56
2023/09/14 19:05:45;;;;;;;5.53;2.97;;;;;;;;;;5010954;28;20193;-56
2023/09/14 19:08:11;;;;;;;2.80;2.60;;;;;;;;;;5010833;28;20201;-56
2023/09/14 19:10:37;;;;;;;4.10;2.60;;;;;;;;;;5010756;28;20193;-56
2023/09/14 19:13:03;;;;;;;4.20;2.40;;;;;;;;;;5010360;28;20279;-56
2023/09/14 19:15:31;;;;;;;4.63;2.83;;;;;;;;;;5011077;28;20235;-56
2023/09/14 19:18:02;;;;;;;3.07;2.80;;;;;;;;;;5010817;28;20720;-56
2023/09/14 19:20:28;;;;;;;5.20;2.50;;;;;;;;;;5010688;28;20693;-56
2023/09/14 19:22:54;;;;;;;4.57;2.60;;;;;;;;;;5010507;28;20277;-55
2023/09/14 19:25:20;;;;;;;3.03;2.73;;;;;;;;;;5010541;28;20215;-55
2023/09/14 19:27:46;;;;;;;5.23;2.73;;;;;;;;;;5011890;28;20228;-55
2023/09/14 19:30:12;;;;;;;4.67;2.87;;;;;;;;;;5014029;28;20852;-55
2023/09/14 19:32:40;;;;;;;4.10;2.87;;;;;;;;;;5012468;28;20267;-57